KFBL/FBL METAR and TAF weather

Enter ICAO airport designator
Station Type Date Time Source
KFBL METAR 2021/05/15 01:35 UTC NOAA

KFBL 150135Z AUTO 11008KT 10SM OVC048 14/04 A3012 RMK AO2


Station Type Date Time Source
KFBL Decoded METAR 2021/05/15 01:35 UTC NOAA

Faribault, Faribault Municipal Airport, MN, United States (KFBL) 44-20N 093-19W
May 14, 2021 - 09:35 PM EDT / 2021.05.15 0135 UTC
Wind: from the ESE (110 degrees) at 9 MPH (8 KT):0
Visibility: 10 mile(s):0
Sky conditions: overcast
Temperature: 57 F (14 C)
Dew Point: 39 F (4 C)
Relative Humidity: 50%
Pressure (altimeter): 30.12 in. Hg (1019 hPa)
ob: KFBL 150135Z AUTO 11008KT 10SM OVC048 14/04 A3012 RMK AO2
cycle: 1

Station Type Date Time Source
KFBL TAF UTC NOAA

Error!

Example: see airport list